Latest Coastal Weather Observations for Red Rocks Point

IDW60701

Issued at 5:35 pm WST Monday 15 September 2014 (issued every 10 minutes, with the page automatically refreshed every 10 minutes)

About coastal observations | Map of coastal stations | Coastal observations for WA | Marine services | Other Formats
Station Details ID: 011053 Name: RED ROCKS POINT Lat: -32.20 Lon: 127.53 Height: 3.1 m
Data from the previous 72 hours. | See also: Recent months for locations in Western Australia
Date/Time
WST
Temp

°C
Wind Pressure Rain
since 9am
mm
Weather Cloud Vis
km
Sea
Height
m
Swell
Dir
 
Speed
knots
Gust
knots
hPa Trend Height
m
Period
s
Dir
15/05:30pm 15.2 S 10 12 1023.2 - 0.0 - - - - - - -
15/05:00pm 15.5 S 9 11 1022.9 - 0.0 - - - - - - -
15/04:30pm 16.0 S 10 12 1022.4 - 0.0 - - - - - - -
15/04:00pm 16.8 S 10 12 1022.3 - 0.0 - - - - - - -
15/03:30pm 17.3 S 11 13 1022.3 - 0.0 - - - - - - -
15/03:00pm 17.5 S 10 12 1022.4 - 0.0 - - - - - - -
15/02:30pm 17.5 S 9 11 1022.0 - 0.0 - - - - - - -
15/02:00pm 18.0 SSE 8 10 1021.9 - 0.0 - - - - - - -
15/01:30pm 18.3 SSE 8 9 1022.3 - 0.0 - - - - - - -
15/01:00pm 18.7 S 8 11 1022.6 - 0.0 - - - - - - -
15/12:30pm 18.5 S 9 11 1023.1 - 0.0 - - - - - - -
15/12:00pm 18.4 S 9 11 1023.2 - 0.0 - - - - - - -
15/11:30am 18.4 S 10 12 1023.5 - 0.0 - - - - - - -
15/11:00am 18.9 S 9 11 1023.7 - 0.0 - - - - - - -
15/10:30am 18.4 S 7 9 1023.8 - 0.0 - - - - - - -
15/10:00am 18.2 S 7 9 1023.9 - 0.0 - - - - - - -
15/09:30am 18.1 S 7 9 1023.9 - 0.0 - - - - - - -
15/09:00am 17.9 S 8 9 1024.0 - 0.0 - - - - - - -
15/08:30am 17.7 S 8 9 1024.0 - 0.0 - - - - - - -
15/08:00am 17.3 SSE 9 10 1024.0 - 0.0 - - - - - - -
 
Date/Time
WST
Temp

°C
Wind Pressure Rain
since 9am
mm
Weather Cloud Vis
km
Sea
Height
m
Swell
Dir
 
Speed
knots
Gust
knots
hPa Trend Height
m
Period
s
Dir
14/06:30pm 15.3 SW 10 15 1021.5 - 0.0 - - - - - - -
14/06:00pm 15.4 SW 9 13 1021.3 - 0.0 - - - - - - -
14/05:30pm 15.6 SW 11 15 1020.9 - 0.0 - - - - - - -
14/05:00pm 15.9 SW 10 17 1020.5 - 0.0 - - - - - - -
14/04:30pm 16.7 SW 13 17 1020.2 - 0.0 - - - - - - -
14/04:00pm 17.2 WSW 13 19 1019.8 - 0.0 - - - - - - -
14/03:30pm 17.7 WSW 13 18 1019.5 - 0.0 - - - - - - -
14/03:00pm 16.9 WSW 15 22 1019.4 - 0.0 - - - - - - -
14/02:30pm 17.7 WSW 14 21 1019.1 - 0.0 - - - - - - -
14/02:00pm 18.1 WSW 15 22 1019.0 - 0.0 - - - - - - -
14/01:30pm 19.1 WSW 15 20 1018.8 - 0.0 - - - - - - -
14/01:00pm 18.6 SW 16 23 1018.7 - 0.0 - - - - - - -
14/12:30pm 19.5 WSW 17 24 1018.7 - 0.0 - - - - - - -
14/12:00pm 19.8 WSW 14 23 1018.6 - 0.0 - - - - - - -
14/11:30am 19.2 WSW 16 23 1018.7 - 0.0 - - - - - - -
14/11:00am 19.5 WSW 16 26 1018.7 - 0.0 - - - - - - -
14/10:54am 18.9 WSW 16 26 1018.7 - 0.0 - - - - - - -
14/10:30am 18.8 WSW 16 23 1018.6 - 0.0 - - - - - - -
14/10:00am 17.8 WSW 14 20 1018.6 - 0.0 - - - - - - -
14/09:30am 17.5 WSW 14 21 1018.7 - 0.0 - - - - - - -
14/09:00am 19.0 WSW 12 16 1018.4 - 0.0 - - - - - - -
14/08:30am 17.0 WSW 12 19 1018.4 - 0.0 - - - - - - -
14/08:00am 17.6 WSW 12 19 1018.2 - 0.0 - - - - - - -
14/07:30am 16.3 W 7 10 1018.0 - 0.0 - - - - - - -
14/07:00am 13.7 NW 6 9 1017.9 - 0.0 - - - - - - -
14/06:30am 11.4 NW 7 10 1017.9 - 0.0 - - - - - - -
14/06:00am 11.1 NW 7 9 1017.3 - 0.0 - - - - - - -
14/05:30am 13.7 NW 6 16 1017.0 - 0.0 - - - - - - -
14/05:00am 14.8 WSW 10 16 1016.6 - 0.0 - - - - - - -
14/04:30am 15.1 SW 9 17 1016.6 - 0.0 - - - - - - -
14/04:00am 15.0 WSW 10 15 1016.4 - 0.0 - - - - - - -
14/03:30am 14.8 WSW 12 18 1016.3 - 0.0 - - - - - - -
14/03:00am 14.9 WSW 11 18 1016.0 - 0.0 - - - - - - -
14/02:30am 15.0 SW 12 18 1016.0 - 0.0 - - - - - - -
14/02:00am 15.1 SW 11 15 1015.9 - 0.0 - - - - - - -
14/01:30am 15.5 SW 10 17 1016.0 - 0.0 - - - - - - -
14/01:00am 15.6 SW 12 18 1016.4 - 0.0 - - - - - - -
14/12:30am 15.6 SW 13 19 1016.7 - 0.0 - - - - - - -
14/12:00am 15.5 SW 12 18 1016.9 - 0.0 - - - - - - -
 
Date/Time
WST
Temp

°C
Wind Pressure Rain
since 9am
mm
Weather Cloud Vis
km
Sea
Height
m
Swell
Dir
 
Speed
knots
Gust
knots
hPa Trend Height
m
Period
s
Dir
13/11:30pm 15.5 SW 11 15 1016.8 - 0.0 - - - - - - -
13/11:00pm 15.7 SW 12 17 1016.8 - 0.0 - - - - - - -
13/10:30pm 15.6 SW 9 13 1017.0 - 0.0 - - - - - - -
13/10:00pm 15.8 SW 9 13 1017.1 - 0.0 - - - - - - -
13/09:30pm 15.9 SW 11 15 1017.2 - 0.0 - - - - - - -
13/09:00pm 15.9 SSW 9 13 1017.4 - 0.0 - - - - - - -
13/08:30pm 16.1 SSW 12 17 1017.2 - 0.0 - - - - - - -
13/08:00pm 16.3 SW 12 16 1017.1 - 0.0 - - - - - - -
13/07:30pm 16.3 SW 11 16 1016.9 - 0.0 - - - - - - -
13/07:00pm 16.5 SW 12 17 1016.5 - 0.0 - - - - - - -
13/06:30pm 16.8 SW 12 18 1015.9 - 0.0 - - - - - - -
13/06:00pm 16.4 SW 9 13 1015.1 - 0.0 - - - - - - -
13/05:30pm 15.8 S 3 8 1014.2 - 0.0 - - - - - - -
13/05:00pm 17.4 E 1 4 1013.0 - 0.0 - - - - - - -
13/04:30pm 18.3 E 7 10 1012.3 - 0.0 - - - - - - -
13/04:00pm 18.7 E 14 18 1011.5 - 0.0 - - - - - - -
13/03:30pm 17.9 ENE 19 26 1010.2 - 0.0 - - - - - - -
13/03:08pm 17.7 E 15 26 1010.4 - 0.0 - - - - - - -
13/03:00pm 17.7 E 17 22 1010.8 - 0.0 - - - - - - -
13/02:30pm 18.1 E 17 22 1010.9 - 0.0 - - - - - - -
13/02:00pm 18.7 E 14 17 1011.8 - 0.0 - - - - - - -
13/01:30pm 18.6 ENE 15 19 1012.2 - 0.0 - - - - - - -
13/01:00pm 18.4 ENE 16 19 1012.7 - 0.0 - - - - - - -
13/12:30pm 18.3 ENE 17 20 1013.3 - 0.0 - - - - - - -
13/12:00pm 18.3 E 16 18 1014.0 - 0.0 - - - - - - -
13/11:30am 18.9 E 13 16 1014.9 - 0.0 - - - - - - -
13/10:30am 18.7 E 9 11 1016.2 - 0.0 - - - - - - -
13/10:00am 18.4 E 11 12 1016.6 - 0.0 - - - - - - -
13/09:30am 17.0 E 10 12 1016.9 - 0.0 - - - - - - -
13/09:00am 18.6 E 11 13 1017.1 - 0.0 - - - - - - -
13/08:30am 19.1 ENE 11 12 1017.2 - 0.0 - - - - - - -
13/08:00am 17.1 NNE 10 15 1017.7 - 0.0 - - - - - - -
13/07:30am 15.2 ENE 7 10 1018.1 - 0.0 - - - - - - -
13/07:00am 13.7 NE 10 14 1017.7 - 0.0 - - - - - - -
13/06:30am 13.1 NE 12 14 1018.5 - 0.0 - - - - - - -
13/06:00am 12.6 NE 11 14 1018.4 - 0.0 - - - - - - -
13/05:30am 12.1 NE 10 13 1018.6 - 0.0 - - - - - - -
13/05:00am 11.9 NE 10 15 1018.8 - 0.0 - - - - - - -
13/04:30am 12.1 NE 12 16 1018.6 - 0.0 - - - - - - -
13/04:00am 12.0 NE 13 17 1018.2 - 0.0 - - - - - - -
13/03:30am 12.3 NE 12 15 1018.9 - 0.0 - - - - - - -
13/02:30am 12.1 NE 11 16 1019.4 - 0.0 - - - - - - -
13/02:00am 12.4 NE 13 17 1019.8 - 0.0 - - - - - - -
13/01:30am 12.7 NE 11 14 1020.4 - 0.0 - - - - - - -
13/01:00am 12.9 NE 9 11 1021.0 - 0.0 - - - - - - -
13/12:30am 13.1 NE 10 12 1021.2 - 0.0 - - - - - - -
13/12:00am 13.3 NE 9 12 1021.5 - 0.0 - - - - - - -
 
Date/Time
WST
Temp

°C
Wind Pressure Rain
since 9am
mm
Weather Cloud Vis
km
Sea
Height
m
Swell
Dir
 
Speed
knots
Gust
knots
hPa Trend Height
m
Period
s
Dir
12/11:30pm 13.5 NE 10 13 1021.7 - 0.0 - - - - - - -
12/11:00pm 13.5 NE 10 14 1021.8 - 0.0 - - - - - - -
12/10:30pm 13.8 NE 10 13 1022.1 - 0.0 - - - - - - -
12/10:00pm 13.8 NE 10 13 1022.3 - 0.0 - - - - - - -
12/09:30pm 13.9 NE 10 13 1022.6 - 0.0 - - - - - - -
12/09:00pm 14.2 NE 11 16 1022.6 - 0.0 - - - - - - -
12/08:30pm 14.5 ENE 12 21 1022.5 - 0.0 - - - - - - -
12/08:00pm 15.4 ENE 17 21 1022.4 - 0.0 - - - - - - -
12/07:30pm 15.6 E 19 21 1022.5 - 0.0 - - - - - - -
12/07:00pm 15.5 E 17 20 1022.5 - 0.0 - - - - - - -
12/06:30pm 15.6 E 18 21 1022.3 - 0.0 - - - - - - -
12/06:00pm 15.5 E 18 21 1022.1 - 0.0 - - - - - - -

Other Formats:

Comma delimited format used in spreadsheet applications
http://www.bom.gov.au/fwo/IDW60701/IDW60701.94644.axf

JavaScript Object Notation format (JSON) in row-major order
http://www.bom.gov.au/fwo/IDW60701/IDW60701.94644.json